aviador You're here:

LBBG Decoded Metar

BOURGAS in BULGARIA
Report Time2017-08-21 23:30:00
UTC Time2017-08-21 23:56:27
Flight Rules vfr VFR
Wind340° at 16 kt
W.Decomp.*RWY 04: 7.0 kt HW 14.4 kt LCW
W.Rank340° ranks 23
Current wind is above 340° avg. (8.4)
Visibility9999 m
Phenomena:N/A
Clouds:N/A
Expected CloudBase > 2,400 ft AGL from Temp-Dew spread
CeilingNone
Temp21°C (ISA +6)
Dew Point15°C (69% RH)
AAT16.9°C
QNH1010 hPa
Density Alt1,142 ft
Elevation92 ft
Report Wrong Elevation
Raw Report
LBBG 212330Z 34016KT 310V010 CAVOK 21/15 Q1010 NOSIG=

Extra information for LBBG:More info

Metar Taf Metar & Taf Last 4 Metars F.Rules Stats Wind Profile Meteogram Temp Stats Airport Information Weather charts Add Link Nearby VenuesMetar ALERT Operation Metar Decoded Social comments